sensor_id;sensor_type;location;lat;lon;timestamp;P1;durP1;ratioP1;P2;durP2;ratioP2
66212;SDS011;53015;50.046;8.238;2023-06-05T00:01:16;1.33;;;0.70;;
66212;SDS011;53015;50.046;8.238;2023-06-05T00:03:42;1.60;;;0.90;;
66212;SDS011;53015;50.046;8.238;2023-06-05T00:06:07;1.70;;;0.90;;
66212;SDS011;53015;50.046;8.238;2023-06-05T00:08:33;2.85;;;0.90;;
66212;SDS011;53015;50.046;8.238;2023-06-05T00:10:58;1.25;;;0.80;;
66212;SDS011;53015;50.046;8.238;2023-06-05T00:13:24;5.57;;;1.00;;
66212;SDS011;53015;50.046;8.238;2023-06-05T00:15:51;2.15;;;1.13;;
66212;SDS011;53015;50.046;8.238;2023-06-05T00:18:16;2.20;;;1.10;;
66212;SDS011;53015;50.046;8.238;2023-06-05T00:20:42;0.88;;;0.70;;
66212;SDS011;53015;50.046;8.238;2023-06-05T00:23:08;2.08;;;0.82;;
66212;SDS011;53015;50.046;8.238;2023-06-05T00:25:33;2.03;;;0.85;;
66212;SDS011;53015;50.046;8.238;2023-06-05T00:27:59;0.73;;;0.73;;
66212;SDS011;53015;50.046;8.238;2023-06-05T00:30:24;0.68;;;0.50;;
66212;SDS011;53015;50.046;8.238;2023-06-05T00:32:51;0.73;;;0.63;;
66212;SDS011;53015;50.046;8.238;2023-06-05T00:35:17;1.98;;;0.65;;
66212;SDS011;53015;50.046;8.238;2023-06-05T00:37:42;1.58;;;0.70;;
66212;SDS011;53015;50.046;8.238;2023-06-05T00:40:08;1.70;;;0.80;;
66212;SDS011;53015;50.046;8.238;2023-06-05T00:42:33;0.70;;;0.70;;
66212;SDS011;53015;50.046;8.238;2023-06-05T00:44:59;0.93;;;0.63;;
66212;SDS011;53015;50.046;8.238;2023-06-05T00:47:24;1.05;;;0.80;;
66212;SDS011;53015;50.046;8.238;2023-06-05T00:49:51;1.25;;;0.98;;
66212;SDS011;53015;50.046;8.238;2023-06-05T00:52:17;1.60;;;0.80;;
66212;SDS011;53015;50.046;8.238;2023-06-05T00:54:43;1.75;;;1.05;;
66212;SDS011;53015;50.046;8.238;2023-06-05T00:57:09;3.10;;;1.35;;
66212;SDS011;53015;50.046;8.238;2023-06-05T00:59:35;1.02;;;0.80;;
66212;SDS011;53015;50.046;8.238;2023-06-05T01:02:01;0.93;;;0.80;;
66212;SDS011;53015;50.046;8.238;2023-06-05T01:04:27;1.23;;;0.80;;
66212;SDS011;53015;50.046;8.238;2023-06-05T01:06:54;1.85;;;1.00;;
66212;SDS011;53015;50.046;8.238;2023-06-05T01:09:20;0.95;;;0.68;;
66212;SDS011;53015;50.046;8.238;2023-06-05T01:11:55;1.17;;;0.82;;
66212;SDS011;53015;50.046;8.238;2023-06-05T01:14:26;1.38;;;0.63;;
66212;SDS011;53015;50.046;8.238;2023-06-05T01:16:53;2.33;;;0.90;;
66212;SDS011;53015;50.046;8.238;2023-06-05T01:19:21;0.70;;;0.65;;
66212;SDS011;53015;50.046;8.238;2023-06-05T01:21:47;1.58;;;0.70;;
66212;SDS011;53015;50.046;8.238;2023-06-05T01:24:14;0.68;;;0.60;;
66212;SDS011;53015;50.046;8.238;2023-06-05T01:26:42;1.25;;;0.70;;
66212;SDS011;53015;50.046;8.238;2023-06-05T01:29:12;1.58;;;0.65;;
66212;SDS011;53015;50.046;8.238;2023-06-05T01:31:40;1.48;;;1.00;;
66212;SDS011;53015;50.046;8.238;2023-06-05T01:34:09;1.88;;;0.70;;
66212;SDS011;53015;50.046;8.238;2023-06-05T01:36:36;1.15;;;0.73;;
66212;SDS011;53015;50.046;8.238;2023-06-05T01:39:04;0.90;;;0.57;;
66212;SDS011;53015;50.046;8.238;2023-06-05T01:41:32;0.80;;;0.80;;
66212;SDS011;53015;50.046;8.238;2023-06-05T01:43:58;0.63;;;0.63;;
66212;SDS011;53015;50.046;8.238;2023-06-05T01:46:25;0.95;;;0.68;;
66212;SDS011;53015;50.046;8.238;2023-06-05T01:48:51;0.80;;;0.60;;
66212;SDS011;53015;50.046;8.238;2023-06-05T01:51:17;1.00;;;0.80;;
66212;SDS011;53015;50.046;8.238;2023-06-05T01:53:43;0.50;;;0.47;;
66212;SDS011;53015;50.046;8.238;2023-06-05T01:56:08;0.45;;;0.43;;
66212;SDS011;53015;50.046;8.238;2023-06-05T01:58:35;1.23;;;0.80;;
66212;SDS011;53015;50.046;8.238;2023-06-05T02:01:01;1.02;;;0.80;;
66212;SDS011;53015;50.046;8.238;2023-06-05T02:03:26;0.80;;;0.45;;
66212;SDS011;53015;50.046;8.238;2023-06-05T02:05:52;1.65;;;0.75;;
66212;SDS011;53015;50.046;8.238;2023-06-05T02:08:17;1.27;;;0.68;;
66212;SDS011;53015;50.046;8.238;2023-06-05T02:10:43;0.82;;;0.60;;
66212;SDS011;53015;50.046;8.238;2023-06-05T02:13:08;3.17;;;0.85;;
66212;SDS011;53015;50.046;8.238;2023-06-05T02:15:35;0.80;;;0.70;;
66212;SDS011;53015;50.046;8.238;2023-06-05T02:18:01;0.77;;;0.57;;
66212;SDS011;53015;50.046;8.238;2023-06-05T02:20:27;0.70;;;0.70;;
66212;SDS011;53015;50.046;8.238;2023-06-05T02:22:52;1.15;;;0.90;;
66212;SDS011;53015;50.046;8.238;2023-06-05T02:25:18;0.95;;;0.63;;
66212;SDS011;53015;50.046;8.238;2023-06-05T02:27:44;1.02;;;0.60;;
66212;SDS011;53015;50.046;8.238;2023-06-05T02:30:10;0.63;;;0.50;;
66212;SDS011;53015;50.046;8.238;2023-06-05T02:32:37;0.50;;;0.50;;
66212;SDS011;53015;50.046;8.238;2023-06-05T02:35:03;1.52;;;0.70;;
66212;SDS011;53015;50.046;8.238;2023-06-05T02:37:29;0.57;;;0.50;;
66212;SDS011;53015;50.046;8.238;2023-06-05T02:39:54;1.50;;;0.55;;
66212;SDS011;53015;50.046;8.238;2023-06-05T02:42:20;3.35;;;0.80;;
66212;SDS011;53015;50.046;8.238;2023-06-05T02:44:45;0.68;;;0.65;;
66212;SDS011;53015;50.046;8.238;2023-06-05T02:47:11;1.10;;;0.63;;
66212;SDS011;53015;50.046;8.238;2023-06-05T02:49:38;1.45;;;0.80;;
66212;SDS011;53015;50.046;8.238;2023-06-05T02:52:03;0.57;;;0.55;;
66212;SDS011;53015;50.046;8.238;2023-06-05T02:54:29;0.95;;;0.60;;
66212;SDS011;53015;50.046;8.238;2023-06-05T02:56:55;1.50;;;0.88;;
66212;SDS011;53015;50.046;8.238;2023-06-05T02:59:20;0.93;;;0.60;;
66212;SDS011;53015;50.046;8.238;2023-06-05T03:01:46;0.98;;;0.70;;
66212;SDS011;53015;50.046;8.238;2023-06-05T03:04:11;1.10;;;0.77;;
66212;SDS011;53015;50.046;8.238;2023-06-05T03:06:38;1.23;;;0.82;;
66212;SDS011;53015;50.046;8.238;2023-06-05T03:09:04;0.95;;;0.75;;
66212;SDS011;53015;50.046;8.238;2023-06-05T03:11:29;0.80;;;0.70;;
66212;SDS011;53015;50.046;8.238;2023-06-05T03:13:55;1.38;;;0.60;;
66212;SDS011;53015;50.046;8.238;2023-06-05T03:16:20;4.18;;;0.95;;
66212;SDS011;53015;50.046;8.238;2023-06-05T03:18:46;1.23;;;0.80;;
66212;SDS011;53015;50.046;8.238;2023-06-05T03:21:11;1.67;;;0.43;;
66212;SDS011;53015;50.046;8.238;2023-06-05T03:23:38;0.63;;;0.60;;
66212;SDS011;53015;50.046;8.238;2023-06-05T03:26:03;0.98;;;0.70;;
66212;SDS011;53015;50.046;8.238;2023-06-05T03:28:29;0.85;;;0.80;;
66212;SDS011;53015;50.046;8.238;2023-06-05T03:30:55;2.45;;;0.82;;
66212;SDS011;53015;50.046;8.238;2023-06-05T03:33:20;1.30;;;0.65;;
66212;SDS011;53015;50.046;8.238;2023-06-05T03:35:46;1.25;;;0.70;;
66212;SDS011;53015;50.046;8.238;2023-06-05T03:38:11;0.60;;;0.60;;
66212;SDS011;53015;50.046;8.238;2023-06-05T03:40:39;1.70;;;0.70;;
66212;SDS011;53015;50.046;8.238;2023-06-05T03:43:04;1.42;;;0.60;;
66212;SDS011;53015;50.046;8.238;2023-06-05T03:45:30;0.57;;;0.57;;
66212;SDS011;53015;50.046;8.238;2023-06-05T03:47:55;0.50;;;0.50;;
66212;SDS011;53015;50.046;8.238;2023-06-05T03:50:21;1.20;;;0.60;;
66212;SDS011;53015;50.046;8.238;2023-06-05T03:52:46;2.35;;;0.60;;
66212;SDS011;53015;50.046;8.238;2023-06-05T03:55:12;1.02;;;0.73;;
66212;SDS011;53015;50.046;8.238;2023-06-05T03:57:38;0.35;;;0.35;;
66212;SDS011;53015;50.046;8.238;2023-06-05T04:00:05;0.95;;;0.70;;
66212;SDS011;53015;50.046;8.238;2023-06-05T04:02:31;4.40;;;0.80;;
66212;SDS011;53015;50.046;8.238;2023-06-05T04:04:57;1.25;;;0.60;;
66212;SDS011;53015;50.046;8.238;2023-06-05T04:07:22;2.35;;;0.73;;
66212;SDS011;53015;50.046;8.238;2023-06-05T04:09:48;1.17;;;0.70;;
66212;SDS011;53015;50.046;8.238;2023-06-05T04:12:13;0.73;;;0.65;;
66212;SDS011;53015;50.046;8.238;2023-06-05T04:14:40;3.83;;;1.20;;
66212;SDS011;53015;50.046;8.238;2023-06-05T04:17:06;1.48;;;0.70;;
66212;SDS011;53015;50.046;8.238;2023-06-05T04:19:31;1.75;;;0.73;;
66212;SDS011;53015;50.046;8.238;2023-06-05T04:21:56;1.02;;;0.82;;
66212;SDS011;53015;50.046;8.238;2023-06-05T04:24:22;2.85;;;1.00;;
66212;SDS011;53015;50.046;8.238;2023-06-05T04:26:47;1.15;;;0.85;;
66212;SDS011;53015;50.046;8.238;2023-06-05T04:29:13;1.60;;;0.90;;
66212;SDS011;53015;50.046;8.238;2023-06-05T04:31:41;1.65;;;0.80;;
66212;SDS011;53015;50.046;8.238;2023-06-05T04:34:07;1.05;;;0.80;;
66212;SDS011;53015;50.046;8.238;2023-06-05T04:36:32;2.47;;;1.13;;
66212;SDS011;53015;50.046;8.238;2023-06-05T04:38:58;1.63;;;0.95;;
66212;SDS011;53015;50.046;8.238;2023-06-05T04:41:23;2.22;;;1.10;;
66212;SDS011;53015;50.046;8.238;2023-06-05T04:43:49;2.08;;;1.10;;
66212;SDS011;53015;50.046;8.238;2023-06-05T04:46:14;2.72;;;0.88;;
66212;SDS011;53015;50.046;8.238;2023-06-05T04:48:41;1.00;;;0.90;;
66212;SDS011;53015;50.046;8.238;2023-06-05T04:51:06;2.90;;;1.05;;
66212;SDS011;53015;50.046;8.238;2023-06-05T04:53:32;2.15;;;1.13;;
66212;SDS011;53015;50.046;8.238;2023-06-05T04:55:57;8.48;;;1.42;;
66212;SDS011;53015;50.046;8.238;2023-06-05T04:58:23;1.60;;;1.05;;
66212;SDS011;53015;50.046;8.238;2023-06-05T05:00:48;3.53;;;1.25;;
66212;SDS011;53015;50.046;8.238;2023-06-05T05:03:14;2.42;;;1.20;;
66212;SDS011;53015;50.046;8.238;2023-06-05T05:05:41;3.58;;;1.10;;
66212;SDS011;53015;50.046;8.238;2023-06-05T05:08:06;4.38;;;1.13;;
66212;SDS011;53015;50.046;8.238;2023-06-05T05:10:32;4.72;;;1.13;;
66212;SDS011;53015;50.046;8.238;2023-06-05T05:12:57;1.60;;;1.00;;
66212;SDS011;53015;50.046;8.238;2023-06-05T05:15:23;5.40;;;1.10;;
66212;SDS011;53015;50.046;8.238;2023-06-05T05:17:48;1.48;;;0.95;;
66212;SDS011;53015;50.046;8.238;2023-06-05T05:20:14;3.58;;;1.20;;
66212;SDS011;53015;50.046;8.238;2023-06-05T05:22:40;1.73;;;0.80;;
66212;SDS011;53015;50.046;8.238;2023-06-05T05:25:06;2.92;;;1.27;;
66212;SDS011;53015;50.046;8.238;2023-06-05T05:27:32;3.78;;;1.10;;
66212;SDS011;53015;50.046;8.238;2023-06-05T05:29:58;3.30;;;1.70;;
66212;SDS011;53015;50.046;8.238;2023-06-05T05:32:23;4.85;;;1.58;;
66212;SDS011;53015;50.046;8.238;2023-06-05T05:34:48;1.40;;;1.02;;
66212;SDS011;53015;50.046;8.238;2023-06-05T05:37:14;4.00;;;2.00;;
66212;SDS011;53015;50.046;8.238;2023-06-05T05:39:41;3.50;;;1.60;;
66212;SDS011;53015;50.046;8.238;2023-06-05T05:42:06;2.10;;;1.50;;
66212;SDS011;53015;50.046;8.238;2023-06-05T05:44:32;3.47;;;1.40;;
66212;SDS011;53015;50.046;8.238;2023-06-05T05:46:57;5.80;;;1.83;;
66212;SDS011;53015;50.046;8.238;2023-06-05T05:49:23;5.45;;;1.58;;
66212;SDS011;53015;50.046;8.238;2023-06-05T05:51:48;1.85;;;1.20;;
66212;SDS011;53015;50.046;8.238;2023-06-05T05:54:15;2.88;;;1.05;;
66212;SDS011;53015;50.046;8.238;2023-06-05T05:56:42;3.20;;;1.20;;
66212;SDS011;53015;50.046;8.238;2023-06-05T05:59:07;3.80;;;1.00;;
66212;SDS011;53015;50.046;8.238;2023-06-05T06:01:33;2.25;;;1.10;;
66212;SDS011;53015;50.046;8.238;2023-06-05T06:03:58;4.60;;;1.40;;
66212;SDS011;53015;50.046;8.238;2023-06-05T06:06:23;1.75;;;0.93;;
66212;SDS011;53015;50.046;8.238;2023-06-05T06:08:49;1.15;;;0.80;;
66212;SDS011;53015;50.046;8.238;2023-06-05T06:11:14;2.40;;;1.02;;
66212;SDS011;53015;50.046;8.238;2023-06-05T06:13:41;2.40;;;1.05;;
66212;SDS011;53015;50.046;8.238;2023-06-05T06:16:07;2.90;;;1.20;;
66212;SDS011;53015;50.046;8.238;2023-06-05T06:18:32;1.90;;;1.00;;
66212;SDS011;53015;50.046;8.238;2023-06-05T06:20:58;2.78;;;0.75;;
66212;SDS011;53015;50.046;8.238;2023-06-05T06:23:23;1.45;;;1.10;;
66212;SDS011;53015;50.046;8.238;2023-06-05T06:25:49;1.02;;;0.90;;
66212;SDS011;53015;50.046;8.238;2023-06-05T06:28:15;4.18;;;0.90;;
66212;SDS011;53015;50.046;8.238;2023-06-05T06:30:42;3.33;;;0.90;;
66212;SDS011;53015;50.046;8.238;2023-06-05T06:33:07;1.30;;;0.80;;
66212;SDS011;53015;50.046;8.238;2023-06-05T06:35:33;2.58;;;0.80;;
66212;SDS011;53015;50.046;8.238;2023-06-05T06:37:58;1.00;;;0.80;;
66212;SDS011;53015;50.046;8.238;2023-06-05T06:40:24;0.70;;;0.68;;
66212;SDS011;53015;50.046;8.238;2023-06-05T06:42:50;1.65;;;1.25;;
66212;SDS011;53015;50.046;8.238;2023-06-05T06:45:16;2.88;;;0.90;;
66212;SDS011;53015;50.046;8.238;2023-06-05T06:47:43;1.13;;;0.85;;
66212;SDS011;53015;50.046;8.238;2023-06-05T06:50:08;1.50;;;0.90;;
66212;SDS011;53015;50.046;8.238;2023-06-05T06:52:34;1.40;;;0.80;;
66212;SDS011;53015;50.046;8.238;2023-06-05T06:54:59;0.95;;;0.73;;
66212;SDS011;53015;50.046;8.238;2023-06-05T06:57:25;2.05;;;0.95;;
66212;SDS011;53015;50.046;8.238;2023-06-05T06:59:50;2.47;;;0.73;;
66212;SDS011;53015;50.046;8.238;2023-06-05T07:02:17;1.90;;;1.00;;
66212;SDS011;53015;50.046;8.238;2023-06-05T07:04:45;0.82;;;0.75;;
66212;SDS011;53015;50.046;8.238;2023-06-05T07:07:11;2.42;;;0.93;;
66212;SDS011;53015;50.046;8.238;2023-06-05T07:09:37;1.20;;;0.70;;
66212;SDS011;53015;50.046;8.238;2023-06-05T07:12:03;0.85;;;0.82;;
66212;SDS011;53015;50.046;8.238;2023-06-05T07:14:29;1.20;;;0.80;;
66212;SDS011;53015;50.046;8.238;2023-06-05T07:16:55;1.88;;;0.70;;
66212;SDS011;53015;50.046;8.238;2023-06-05T07:19:20;1.80;;;0.77;;
66212;SDS011;53015;50.046;8.238;2023-06-05T07:21:47;2.15;;;1.02;;
66212;SDS011;53015;50.046;8.238;2023-06-05T07:24:13;1.00;;;0.90;;
66212;SDS011;53015;50.046;8.238;2023-06-05T07:26:38;1.10;;;0.77;;
66212;SDS011;53015;50.046;8.238;2023-06-05T07:29:04;0.93;;;0.80;;
66212;SDS011;53015;50.046;8.238;2023-06-05T07:31:29;0.80;;;0.80;;
66212;SDS011;53015;50.046;8.238;2023-06-05T07:33:54;1.63;;;0.90;;
66212;SDS011;53015;50.046;8.238;2023-06-05T07:36:20;2.13;;;1.00;;
66212;SDS011;53015;50.046;8.238;2023-06-05T07:38:47;4.30;;;1.00;;
66212;SDS011;53015;50.046;8.238;2023-06-05T07:41:12;2.20;;;0.85;;
66212;SDS011;53015;50.046;8.238;2023-06-05T07:43:38;1.52;;;0.70;;
66212;SDS011;53015;50.046;8.238;2023-06-05T07:46:03;1.80;;;0.75;;
66212;SDS011;53015;50.046;8.238;2023-06-05T07:48:28;1.00;;;0.90;;
66212;SDS011;53015;50.046;8.238;2023-06-05T07:50:54;2.13;;;0.95;;
66212;SDS011;53015;50.046;8.238;2023-06-05T07:53:20;0.90;;;0.65;;
66212;SDS011;53015;50.046;8.238;2023-06-05T07:55:46;4.07;;;0.82;;
66212;SDS011;53015;50.046;8.238;2023-06-05T07:58:12;2.53;;;0.85;;
66212;SDS011;53015;50.046;8.238;2023-06-05T08:00:38;1.42;;;1.05;;
66212;SDS011;53015;50.046;8.238;2023-06-05T08:03:06;1.60;;;1.10;;
66212;SDS011;53015;50.046;8.238;2023-06-05T08:05:31;2.35;;;0.98;;
66212;SDS011;53015;50.046;8.238;2023-06-05T08:07:57;2.05;;;1.40;;
66212;SDS011;53015;50.046;8.238;2023-06-05T08:10:22;1.08;;;0.93;;
66212;SDS011;53015;50.046;8.238;2023-06-05T08:12:49;1.23;;;0.73;;
66212;SDS011;53015;50.046;8.238;2023-06-05T08:15:15;0.88;;;0.70;;
66212;SDS011;53015;50.046;8.238;2023-06-05T08:17:40;1.60;;;0.70;;
66212;SDS011;53015;50.046;8.238;2023-06-05T08:20:06;1.35;;;0.95;;
66212;SDS011;53015;50.046;8.238;2023-06-05T08:22:33;0.80;;;0.70;;
66212;SDS011;53015;50.046;8.238;2023-06-05T08:24:58;2.38;;;1.10;;
66212;SDS011;53015;50.046;8.238;2023-06-05T08:27:24;3.13;;;1.00;;
66212;SDS011;53015;50.046;8.238;2023-06-05T08:29:50;3.88;;;1.00;;
66212;SDS011;53015;50.046;8.238;2023-06-05T08:32:16;1.98;;;1.00;;
66212;SDS011;53015;50.046;8.238;2023-06-05T08:34:41;0.98;;;0.80;;
66212;SDS011;53015;50.046;8.238;2023-06-05T08:37:07;5.72;;;1.10;;
66212;SDS011;53015;50.046;8.238;2023-06-05T08:39:32;0.93;;;0.80;;
66212;SDS011;53015;50.046;8.238;2023-06-05T08:41:58;1.60;;;1.02;;
66212;SDS011;53015;50.046;8.238;2023-06-05T08:44:23;3.67;;;1.20;;
66212;SDS011;53015;50.046;8.238;2023-06-05T08:46:50;3.42;;;1.15;;
66212;SDS011;53015;50.046;8.238;2023-06-05T08:49:17;0.75;;;0.75;;
66212;SDS011;53015;50.046;8.238;2023-06-05T08:51:47;2.63;;;0.90;;
66212;SDS011;53015;50.046;8.238;2023-06-05T08:54:14;3.65;;;1.13;;
66212;SDS011;53015;50.046;8.238;2023-06-05T08:56:41;2.38;;;1.10;;
66212;SDS011;53015;50.046;8.238;2023-06-05T08:59:07;2.75;;;1.05;;
66212;SDS011;53015;50.046;8.238;2023-06-05T09:01:34;1.10;;;0.88;;
66212;SDS011;53015;50.046;8.238;2023-06-05T09:04:01;2.22;;;1.20;;
66212;SDS011;53015;50.046;8.238;2023-06-05T09:06:27;2.83;;;0.93;;
66212;SDS011;53015;50.046;8.238;2023-06-05T09:08:52;2.40;;;0.85;;
66212;SDS011;53015;50.046;8.238;2023-06-05T09:11:24;1.08;;;0.98;;
66212;SDS011;53015;50.046;8.238;2023-06-05T09:13:51;1.05;;;1.00;;
66212;SDS011;53015;50.046;8.238;2023-06-05T09:16:18;2.72;;;1.10;;
66212;SDS011;53015;50.046;8.238;2023-06-05T09:18:51;3.15;;;1.17;;
66212;SDS011;53015;50.046;8.238;2023-06-05T09:21:18;1.52;;;1.05;;
66212;SDS011;53015;50.046;8.238;2023-06-05T09:23:44;1.60;;;1.00;;
66212;SDS011;53015;50.046;8.238;2023-06-05T09:26:10;1.38;;;1.13;;
66212;SDS011;53015;50.046;8.238;2023-06-05T09:28:35;2.88;;;1.02;;
66212;SDS011;53015;50.046;8.238;2023-06-05T09:31:01;3.35;;;1.27;;
66212;SDS011;53015;50.046;8.238;2023-06-05T09:33:28;1.88;;;1.10;;
66212;SDS011;53015;50.046;8.238;2023-06-05T09:36:01;1.63;;;1.10;;
66212;SDS011;53015;50.046;8.238;2023-06-05T09:38:32;2.72;;;1.10;;
66212;SDS011;53015;50.046;8.238;2023-06-05T09:41:00;2.53;;;1.25;;
66212;SDS011;53015;50.046;8.238;2023-06-05T09:43:27;1.70;;;1.10;;
66212;SDS011;53015;50.046;8.238;2023-06-05T09:45:52;1.52;;;1.20;;
66212;SDS011;53015;50.046;8.238;2023-06-05T09:48:18;2.13;;;1.20;;
66212;SDS011;53015;50.046;8.238;2023-06-05T09:50:44;1.75;;;1.25;;
66212;SDS011;53015;50.046;8.238;2023-06-05T09:53:10;1.75;;;1.20;;
66212;SDS011;53015;50.046;8.238;2023-06-05T09:55:41;2.33;;;1.10;;
66212;SDS011;53015;50.046;8.238;2023-06-05T09:58:06;3.05;;;1.20;;
66212;SDS011;53015;50.046;8.238;2023-06-05T10:00:36;7.35;;;1.30;;
66212;SDS011;53015;50.046;8.238;2023-06-05T10:03:03;2.15;;;1.10;;
66212;SDS011;53015;50.046;8.238;2023-06-05T10:05:33;2.97;;;1.70;;
66212;SDS011;53015;50.046;8.238;2023-06-05T10:08:01;3.28;;;1.70;;
66212;SDS011;53015;50.046;8.238;2023-06-05T10:10:27;5.05;;;1.30;;
66212;SDS011;53015;50.046;8.238;2023-06-05T10:12:55;2.17;;;1.05;;
66212;SDS011;53015;50.046;8.238;2023-06-05T10:15:21;1.65;;;0.93;;
66212;SDS011;53015;50.046;8.238;2023-06-05T10:17:47;1.77;;;1.10;;
66212;SDS011;53015;50.046;8.238;2023-06-05T10:20:14;1.75;;;1.10;;
66212;SDS011;53015;50.046;8.238;2023-06-05T10:22:40;2.60;;;1.35;;
66212;SDS011;53015;50.046;8.238;2023-06-05T10:25:08;1.85;;;1.33;;
66212;SDS011;53015;50.046;8.238;2023-06-05T10:27:50;1.17;;;1.08;;
66212;SDS011;53015;50.046;8.238;2023-06-05T10:30:37;1.23;;;1.00;;
66212;SDS011;53015;50.046;8.238;2023-06-05T10:36:20;1.73;;;1.00;;
66212;SDS011;53015;50.046;8.238;2023-06-05T10:39:00;1.40;;;0.90;;
66212;SDS011;53015;50.046;8.238;2023-06-05T10:41:25;1.70;;;0.82;;
66212;SDS011;53015;50.046;8.238;2023-06-05T10:43:53;1.00;;;0.90;;
66212;SDS011;53015;50.046;8.238;2023-06-05T10:46:28;1.20;;;1.10;;
66212;SDS011;53015;50.046;8.238;2023-06-05T10:49:07;2.30;;;1.10;;
66212;SDS011;53015;50.046;8.238;2023-06-05T10:51:35;2.08;;;1.35;;
66212;SDS011;53015;50.046;8.238;2023-06-05T10:54:02;0.88;;;0.73;;
66212;SDS011;53015;50.046;8.238;2023-06-05T10:59:18;1.50;;;1.08;;
66212;SDS011;53015;50.046;8.238;2023-06-05T11:01:45;1.13;;;1.00;;
66212;SDS011;53015;50.046;8.238;2023-06-05T11:05:05;2.20;;;1.20;;
66212;SDS011;53015;50.046;8.238;2023-06-05T11:07:34;1.30;;;1.15;;
66212;SDS011;53015;50.046;8.238;2023-06-05T11:10:06;4.03;;;1.40;;
66212;SDS011;53015;50.046;8.238;2023-06-05T11:15:36;2.58;;;1.30;;
66212;SDS011;53015;50.046;8.238;2023-06-05T11:20:53;1.70;;;1.00;;
66212;SDS011;53015;50.046;8.238;2023-06-05T11:23:19;1.83;;;1.08;;
66212;SDS011;53015;50.046;8.238;2023-06-05T11:25:45;1.10;;;1.00;;
66212;SDS011;53015;50.046;8.238;2023-06-05T11:28:10;2.65;;;0.98;;
66212;SDS011;53015;50.046;8.238;2023-06-05T11:30:39;1.48;;;1.00;;
66212;SDS011;53015;50.046;8.238;2023-06-05T11:33:06;1.45;;;0.88;;
66212;SDS011;53015;50.046;8.238;2023-06-05T11:35:32;2.95;;;0.85;;
66212;SDS011;53015;50.046;8.238;2023-06-05T11:38:07;1.73;;;1.08;;
66212;SDS011;53015;50.046;8.238;2023-06-05T11:40:34;1.75;;;1.08;;
66212;SDS011;53015;50.046;8.238;2023-06-05T11:43:01;2.20;;;0.80;;
66212;SDS011;53015;50.046;8.238;2023-06-05T11:45:27;1.00;;;0.80;;
66212;SDS011;53015;50.046;8.238;2023-06-05T11:48:04;1.67;;;1.00;;
66212;SDS011;53015;50.046;8.238;2023-06-05T11:50:30;0.98;;;0.90;;
66212;SDS011;53015;50.046;8.238;2023-06-05T11:53:03;1.27;;;1.17;;
66212;SDS011;53015;50.046;8.238;2023-06-05T11:55:29;1.80;;;1.10;;
66212;SDS011;53015;50.046;8.238;2023-06-05T11:57:54;1.00;;;0.85;;
66212;SDS011;53015;50.046;8.238;2023-06-05T12:00:22;1.10;;;1.00;;
66212;SDS011;53015;50.046;8.238;2023-06-05T12:02:48;1.75;;;1.10;;
66212;SDS011;53015;50.046;8.238;2023-06-05T12:05:15;1.23;;;1.13;;
66212;SDS011;53015;50.046;8.238;2023-06-05T12:07:41;1.15;;;1.00;;
66212;SDS011;53015;50.046;8.238;2023-06-05T12:10:07;9.50;;;1.38;;
66212;SDS011;53015;50.046;8.238;2023-06-05T12:12:33;2.88;;;1.50;;
66212;SDS011;53015;50.046;8.238;2023-06-05T12:15:13;1.45;;;1.10;;
66212;SDS011;53015;50.046;8.238;2023-06-05T12:17:38;1.70;;;1.20;;
66212;SDS011;53015;50.046;8.238;2023-06-05T12:20:05;1.63;;;1.13;;
66212;SDS011;53015;50.046;8.238;2023-06-05T12:22:34;1.65;;;1.00;;
66212;SDS011;53015;50.046;8.238;2023-06-05T12:25:14;4.70;;;1.83;;
66212;SDS011;53015;50.046;8.238;2023-06-05T12:27:39;1.85;;;1.10;;
66212;SDS011;53015;50.046;8.238;2023-06-05T12:30:05;2.17;;;1.20;;
66212;SDS011;53015;50.046;8.238;2023-06-05T12:32:32;1.20;;;1.10;;
66212;SDS011;53015;50.046;8.238;2023-06-05T12:34:57;1.20;;;1.02;;
66212;SDS011;53015;50.046;8.238;2023-06-05T12:37:23;2.10;;;1.10;;
66212;SDS011;53015;50.046;8.238;2023-06-05T12:39:51;2.45;;;1.17;;
66212;SDS011;53015;50.046;8.238;2023-06-05T12:42:16;1.35;;;0.90;;
66212;SDS011;53015;50.046;8.238;2023-06-05T12:44:42;1.75;;;1.17;;
66212;SDS011;53015;50.046;8.238;2023-06-05T12:47:08;1.52;;;1.05;;
66212;SDS011;53015;50.046;8.238;2023-06-05T12:49:33;1.02;;;1.02;;
66212;SDS011;53015;50.046;8.238;2023-06-05T12:51:59;3.65;;;1.10;;
66212;SDS011;53015;50.046;8.238;2023-06-05T12:54:24;1.23;;;1.13;;
66212;SDS011;53015;50.046;8.238;2023-06-05T12:56:51;1.40;;;1.30;;
66212;SDS011;53015;50.046;8.238;2023-06-05T12:59:16;1.75;;;1.17;;
66212;SDS011;53015;50.046;8.238;2023-06-05T13:01:42;2.35;;;1.10;;
66212;SDS011;53015;50.046;8.238;2023-06-05T13:04:07;1.10;;;1.00;;
66212;SDS011;53015;50.046;8.238;2023-06-05T13:06:33;1.52;;;1.20;;
66212;SDS011;53015;50.046;8.238;2023-06-05T13:08:58;1.95;;;1.08;;
66212;SDS011;53015;50.046;8.238;2023-06-05T13:11:24;1.30;;;1.20;;
66212;SDS011;53015;50.046;8.238;2023-06-05T13:13:50;1.10;;;1.00;;
66212;SDS011;53015;50.046;8.238;2023-06-05T13:16:16;1.25;;;1.10;;
66212;SDS011;53015;50.046;8.238;2023-06-05T13:18:41;6.38;;;1.10;;
66212;SDS011;53015;50.046;8.238;2023-06-05T13:21:07;3.88;;;1.10;;
66212;SDS011;53015;50.046;8.238;2023-06-05T13:23:32;1.33;;;1.17;;
66212;SDS011;53015;50.046;8.238;2023-06-05T13:25:58;1.40;;;1.00;;
66212;SDS011;53015;50.046;8.238;2023-06-05T13:28:24;1.60;;;1.30;;
66212;SDS011;53015;50.046;8.238;2023-06-05T13:30:50;1.60;;;1.20;;
66212;SDS011;53015;50.046;8.238;2023-06-05T13:33:16;1.30;;;1.20;;
66212;SDS011;53015;50.046;8.238;2023-06-05T13:35:41;2.08;;;1.38;;
66212;SDS011;53015;50.046;8.238;2023-06-05T13:38:07;1.10;;;1.00;;
66212;SDS011;53015;50.046;8.238;2023-06-05T13:40:32;1.45;;;1.17;;
66212;SDS011;53015;50.046;8.238;2023-06-05T13:42:58;2.92;;;1.55;;
66212;SDS011;53015;50.046;8.238;2023-06-05T13:45:23;3.00;;;2.10;;
66212;SDS011;53015;50.046;8.238;2023-06-05T13:47:50;4.00;;;1.88;;
66212;SDS011;53015;50.046;8.238;2023-06-05T13:50:16;2.67;;;1.20;;
66212;SDS011;53015;50.046;8.238;2023-06-05T13:52:41;2.13;;;1.27;;
66212;SDS011;53015;50.046;8.238;2023-06-05T13:55:07;1.15;;;1.05;;
66212;SDS011;53015;50.046;8.238;2023-06-05T13:57:33;1.10;;;1.00;;
66212;SDS011;53015;50.046;8.238;2023-06-05T13:59:58;1.17;;;1.10;;
66212;SDS011;53015;50.046;8.238;2023-06-05T14:02:24;1.40;;;1.15;;
66212;SDS011;53015;50.046;8.238;2023-06-05T14:04:51;1.58;;;1.05;;
66212;SDS011;53015;50.046;8.238;2023-06-05T14:07:16;1.48;;;1.00;;
66212;SDS011;53015;50.046;8.238;2023-06-05T14:09:42;1.60;;;1.10;;
66212;SDS011;53015;50.046;8.238;2023-06-05T14:12:07;2.40;;;1.08;;
66212;SDS011;53015;50.046;8.238;2023-06-05T14:14:33;5.18;;;1.98;;
66212;SDS011;53015;50.046;8.238;2023-06-05T14:16:58;1.35;;;1.13;;
66212;SDS011;53015;50.046;8.238;2023-06-05T14:19:24;1.10;;;0.98;;
66212;SDS011;53015;50.046;8.238;2023-06-05T14:21:51;1.30;;;1.20;;
66212;SDS011;53015;50.046;8.238;2023-06-05T14:24:16;1.25;;;1.00;;
66212;SDS011;53015;50.046;8.238;2023-06-05T14:26:42;2.35;;;1.38;;
66212;SDS011;53015;50.046;8.238;2023-06-05T14:29:07;2.50;;;1.30;;
66212;SDS011;53015;50.046;8.238;2023-06-05T14:31:33;1.33;;;1.15;;
66212;SDS011;53015;50.046;8.238;2023-06-05T14:33:58;1.27;;;1.15;;
66212;SDS011;53015;50.046;8.238;2023-06-05T14:36:24;1.33;;;1.20;;
66212;SDS011;53015;50.046;8.238;2023-06-05T14:38:50;3.72;;;1.17;;
66212;SDS011;53015;50.046;8.238;2023-06-05T14:41:16;3.78;;;1.25;;
66212;SDS011;53015;50.046;8.238;2023-06-05T14:43:41;1.20;;;1.10;;
66212;SDS011;53015;50.046;8.238;2023-06-05T14:46:07;3.65;;;1.33;;
66212;SDS011;53015;50.046;8.238;2023-06-05T14:48:32;1.50;;;1.20;;
66212;SDS011;53015;50.046;8.238;2023-06-05T14:50:58;3.25;;;1.00;;
66212;SDS011;53015;50.046;8.238;2023-06-05T14:53:23;1.40;;;1.30;;
66212;SDS011;53015;50.046;8.238;2023-06-05T14:55:50;1.30;;;1.20;;